Terminal Aerodrome Forecast
Issued by NWS Wakefield, VA

Current Version | Previous Version | Text Only | Print | Product List | Glossary On
Versions: 1 2 3 4 5 6 7 8 9 10 11 12 13 14 15 16
000
FTUS41 KAKQ 270400 AAB
TAFRIC
TAF AMD
KRIC 270400Z 2704/2724 VRB05KT P6SM -RA SCT050 OVC120
     FM270500 30004KT P6SM BKN050
     FM270900 00000KT 4SM BR SCT080 BKN250
     FM271300 VRB03KT P6SM BKN250
     FM271900 34004KT P6SM BKN100 OVC200=

USA.gov is the U.S. government's official web portal to all federal, state and local government web resources and services.